createdAt,value
2022-08-25T00:00:17.989Z,0.00
2022-08-25T00:01:07.955Z,0.00
2022-08-25T00:01:57.932Z,0.00
2022-08-25T00:02:55.627Z,0.00
2022-08-25T00:03:39.577Z,0.00
2022-08-25T00:04:27.945Z,0.00
2022-08-25T00:05:17.957Z,0.00
2022-08-25T00:06:07.916Z,0.00
2022-08-25T00:07:02.736Z,0.00
2022-08-25T00:07:48.884Z,0.00
2022-08-25T00:08:37.866Z,0.00
2022-08-25T00:09:27.891Z,0.00
2022-08-25T00:10:17.862Z,0.00
2022-08-25T00:11:07.832Z,0.00
2022-08-25T00:11:57.822Z,0.00
2022-08-25T00:12:47.841Z,0.00
2022-08-25T00:13:37.801Z,0.00
2022-08-25T00:14:27.836Z,0.00
2022-08-25T00:15:17.794Z,0.00
2022-08-25T00:16:07.846Z,0.00
2022-08-25T00:16:57.773Z,0.00
2022-08-25T00:17:47.755Z,0.00
2022-08-25T00:18:37.784Z,0.00
2022-08-25T00:19:27.753Z,0.00
2022-08-25T00:20:17.724Z,0.00
2022-08-25T00:21:07.721Z,0.00
2022-08-25T00:21:57.714Z,0.00
2022-08-25T00:22:47.712Z,0.00
2022-08-25T00:23:37.693Z,0.00
2022-08-25T00:24:27.713Z,0.00
2022-08-25T00:25:17.689Z,0.00
2022-08-25T00:26:07.692Z,0.00
2022-08-25T00:26:57.655Z,0.00
2022-08-25T00:27:47.654Z,0.00
2022-08-25T00:28:37.631Z,0.00
2022-08-25T00:29:27.635Z,0.00
2022-08-25T00:30:17.637Z,0.00
2022-08-25T00:31:07.712Z,0.00
2022-08-25T00:31:57.622Z,0.00
2022-08-25T00:32:55.486Z,0.00
2022-08-25T00:33:38.573Z,0.00
2022-08-25T00:34:27.572Z,0.00
2022-08-25T00:35:17.576Z,0.00
2022-08-25T00:36:07.569Z,0.00
2022-08-25T00:36:57.573Z,0.00
2022-08-25T00:37:47.645Z,0.00
2022-08-25T00:38:37.531Z,0.00
2022-08-25T00:39:27.565Z,0.00
2022-08-25T00:40:17.563Z,0.00
2022-08-25T00:41:07.492Z,0.00
2022-08-25T00:41:57.495Z,0.00
2022-08-25T00:42:47.482Z,0.00
2022-08-25T00:43:37.463Z,0.00
2022-08-25T00:44:27.513Z,0.00
2022-08-25T00:45:17.442Z,0.00
2022-08-25T00:46:07.477Z,0.00
2022-08-25T00:46:57.445Z,0.00
2022-08-25T00:47:47.431Z,0.00
2022-08-25T00:48:37.412Z,0.00
2022-08-25T00:49:27.442Z,0.00
2022-08-25T00:50:17.383Z,0.00
2022-08-25T00:51:07.400Z,0.00
2022-08-25T00:51:57.370Z,0.00
2022-08-25T00:52:47.363Z,0.00
2022-08-25T00:53:37.367Z,0.00
2022-08-25T00:54:27.366Z,0.00
2022-08-25T00:55:17.353Z,0.00
2022-08-25T00:56:07.334Z,0.00
2022-08-25T00:56:57.323Z,0.00
2022-08-25T00:57:47.327Z,0.00
2022-08-25T00:58:37.293Z,0.00
2022-08-25T00:59:27.302Z,0.00
2022-08-25T01:00:17.283Z,0.00
2022-08-25T01:01:07.332Z,0.00
2022-08-25T01:01:57.320Z,0.00
2022-08-25T01:02:47.293Z,0.00
2022-08-25T01:03:37.249Z,0.00
2022-08-25T01:04:27.374Z,0.00
2022-08-25T01:05:17.224Z,0.00
2022-08-25T01:06:07.232Z,0.00
2022-08-25T01:06:57.203Z,0.00
2022-08-25T01:07:47.191Z,0.00
2022-08-25T01:08:37.202Z,0.00
2022-08-25T01:09:27.194Z,0.00
2022-08-25T01:10:17.173Z,0.00
2022-08-25T01:11:07.161Z,0.00
2022-08-25T01:11:57.169Z,0.00
2022-08-25T01:12:47.140Z,0.00
2022-08-25T01:13:37.153Z,0.00
2022-08-25T01:14:27.130Z,0.00
2022-08-25T01:15:17.122Z,0.00
2022-08-25T01:16:07.177Z,0.00
2022-08-25T01:16:57.101Z,0.00
2022-08-25T01:17:47.091Z,0.00
2022-08-25T01:18:37.080Z,0.00
2022-08-25T01:19:27.078Z,0.00
2022-08-25T01:20:17.048Z,0.00
2022-08-25T01:21:07.082Z,0.00
2022-08-25T01:21:57.050Z,0.00
2022-08-25T01:22:50.876Z,0.00
2022-08-25T01:23:38.011Z,0.00
2022-08-25T01:24:27.014Z,0.00
2022-08-25T01:25:17.000Z,0.00
2022-08-25T01:26:07.008Z,0.00
2022-08-25T01:26:56.971Z,0.00
2022-08-25T01:27:46.972Z,0.00
2022-08-25T01:28:36.972Z,0.00
2022-08-25T01:29:26.960Z,0.00
2022-08-25T01:30:16.962Z,0.00
2022-08-25T01:31:23.694Z,0.00
2022-08-25T01:31:57.919Z,0.00
2022-08-25T01:32:46.910Z,0.00
2022-08-25T01:33:36.900Z,0.00
2022-08-25T01:34:26.973Z,0.00
2022-08-25T01:35:16.879Z,0.00
2022-08-25T01:36:06.878Z,0.00
2022-08-25T01:36:56.889Z,0.00
2022-08-25T01:37:46.868Z,0.00
2022-08-25T01:38:36.851Z,0.00
2022-08-25T01:39:26.849Z,0.00
2022-08-25T01:40:16.923Z,0.00
2022-08-25T01:41:06.836Z,0.00
2022-08-25T01:41:56.829Z,0.00
2022-08-25T01:42:46.810Z,0.00
2022-08-25T01:43:36.988Z,0.00
2022-08-25T01:44:26.781Z,0.00
2022-08-25T01:45:16.780Z,0.00
2022-08-25T01:46:06.799Z,0.00
2022-08-25T01:46:56.776Z,0.00
2022-08-25T01:47:46.759Z,0.00
2022-08-25T01:48:36.759Z,0.00
2022-08-25T01:49:26.749Z,0.00
2022-08-25T01:50:16.710Z,0.00
2022-08-25T01:51:06.721Z,0.00
2022-08-25T01:51:56.688Z,0.00
2022-08-25T01:52:46.702Z,0.00
2022-08-25T01:53:36.708Z,0.00
2022-08-25T01:54:26.678Z,0.00
2022-08-25T01:55:16.671Z,0.00
2022-08-25T01:56:09.690Z,0.00
2022-08-25T01:56:56.638Z,0.00
2022-08-25T01:57:46.665Z,0.00
2022-08-25T01:58:36.618Z,0.00
2022-08-25T01:59:26.609Z,0.00
2022-08-25T02:00:16.616Z,0.00
2022-08-25T02:01:06.690Z,0.00
2022-08-25T02:01:59.763Z,0.00
2022-08-25T02:02:46.629Z,0.00
2022-08-25T02:03:37.568Z,0.00
2022-08-25T02:04:26.577Z,0.00
2022-08-25T02:05:19.331Z,0.00
2022-08-25T02:06:07.565Z,0.00
2022-08-25T02:06:56.528Z,0.00
2022-08-25T02:07:46.539Z,0.00
2022-08-25T02:08:36.505Z,0.00
2022-08-25T02:09:26.507Z,0.00
2022-08-25T02:10:16.499Z,0.00
2022-08-25T02:11:06.488Z,0.00
2022-08-25T02:11:56.511Z,0.00
2022-08-25T02:12:46.478Z,0.00
2022-08-25T02:13:36.447Z,0.00
2022-08-25T02:14:26.445Z,0.00
2022-08-25T02:15:16.437Z,0.00
2022-08-25T02:16:06.448Z,0.00
2022-08-25T02:16:56.510Z,0.00
2022-08-25T02:17:46.576Z,0.00
2022-08-25T02:18:36.405Z,0.00
2022-08-25T02:19:26.400Z,0.00
2022-08-25T02:20:16.399Z,0.00
2022-08-25T02:21:06.368Z,0.00
2022-08-25T02:21:56.355Z,0.00
2022-08-25T02:22:53.034Z,0.00
2022-08-25T02:23:37.355Z,0.00
2022-08-25T02:24:26.347Z,0.00
2022-08-25T02:25:16.335Z,0.00
2022-08-25T02:26:06.319Z,0.00
2022-08-25T02:26:56.298Z,0.00
2022-08-25T02:27:46.327Z,0.00
2022-08-25T02:28:36.289Z,0.00
2022-08-25T02:29:26.286Z,0.00
2022-08-25T02:30:16.268Z,0.00
2022-08-25T02:31:06.319Z,0.00
2022-08-25T02:31:56.246Z,0.00
2022-08-25T02:32:46.275Z,0.00
2022-08-25T02:33:36.239Z,0.00
2022-08-25T02:34:26.237Z,0.00
2022-08-25T02:35:16.206Z,0.00
2022-08-25T02:36:06.206Z,0.00
2022-08-25T02:36:56.208Z,0.00
2022-08-25T02:37:46.185Z,0.00
2022-08-25T02:38:36.178Z,0.00
2022-08-25T02:39:26.198Z,0.00
2022-08-25T02:40:16.211Z,0.00
2022-08-25T02:41:06.164Z,0.00
2022-08-25T02:41:56.133Z,0.00
2022-08-25T02:42:46.127Z,0.00
2022-08-25T02:43:36.133Z,0.00
2022-08-25T02:44:26.117Z,0.00
2022-08-25T02:45:16.108Z,0.00
2022-08-25T02:46:06.265Z,0.00
2022-08-25T02:46:56.114Z,0.00
2022-08-25T02:47:46.066Z,0.00
2022-08-25T02:48:36.056Z,0.00
2022-08-25T02:49:26.068Z,0.00
2022-08-25T02:50:16.037Z,0.00
2022-08-25T02:51:06.166Z,0.00
2022-08-25T02:51:56.045Z,0.00
2022-08-25T02:52:46.027Z,0.00
2022-08-25T02:53:35.999Z,0.00
2022-08-25T02:54:25.995Z,0.00
2022-08-25T02:55:16.027Z,0.00
2022-08-25T02:56:05.979Z,0.00
2022-08-25T02:56:55.995Z,0.00
2022-08-25T02:57:45.965Z,0.00
2022-08-25T02:58:35.956Z,0.00
2022-08-25T02:59:25.934Z,0.00
2022-08-25T03:00:15.947Z,0.00
2022-08-25T03:01:05.980Z,0.00
2022-08-25T03:01:55.935Z,0.00
2022-08-25T03:02:45.905Z,0.00
2022-08-25T03:03:39.352Z,0.00
2022-08-25T03:04:25.901Z,0.00
2022-08-25T03:05:15.967Z,0.00
2022-08-25T03:06:05.884Z,0.00
2022-08-25T03:06:55.866Z,0.00
2022-08-25T03:07:45.842Z,0.00
2022-08-25T03:08:35.857Z,0.00
2022-08-25T03:09:25.829Z,0.00
2022-08-25T03:10:15.814Z,0.00
2022-08-25T03:11:05.844Z,0.00
2022-08-25T03:11:55.816Z,0.00
2022-08-25T03:12:45.803Z,0.00
2022-08-25T03:13:35.791Z,0.00
2022-08-25T03:14:25.765Z,0.00
2022-08-25T03:15:15.791Z,0.00
2022-08-25T03:16:05.783Z,0.00
2022-08-25T03:16:56.841Z,0.00
2022-08-25T03:17:45.876Z,0.00
2022-08-25T03:18:35.723Z,0.00
2022-08-25T03:19:25.714Z,0.00
2022-08-25T03:20:15.734Z,0.00
2022-08-25T03:21:05.695Z,0.00
2022-08-25T03:21:55.684Z,0.00
2022-08-25T03:22:45.686Z,0.00
2022-08-25T03:23:35.674Z,0.00
2022-08-25T03:24:25.676Z,0.00
2022-08-25T03:25:15.696Z,0.00
2022-08-25T03:26:05.652Z,0.00
2022-08-25T03:26:55.635Z,0.00
2022-08-25T03:27:45.633Z,0.00
2022-08-25T03:28:35.644Z,0.00
2022-08-25T03:29:25.603Z,0.00
2022-08-25T03:30:15.603Z,0.00
2022-08-25T03:31:05.578Z,0.00
2022-08-25T03:31:55.622Z,0.00
2022-08-25T03:32:45.608Z,0.00
2022-08-25T03:33:35.552Z,0.00
2022-08-25T03:34:25.539Z,0.00
2022-08-25T03:35:15.543Z,0.00
2022-08-25T03:36:05.551Z,0.00
2022-08-25T03:36:55.525Z,0.00
2022-08-25T03:37:45.503Z,0.00
2022-08-25T03:38:35.523Z,0.00
2022-08-25T03:39:25.495Z,0.00
2022-08-25T03:40:16.527Z,0.00
2022-08-25T03:41:05.475Z,0.00
2022-08-25T03:41:55.473Z,0.00
2022-08-25T03:42:45.444Z,0.00
2022-08-25T03:43:35.442Z,0.00
2022-08-25T03:44:25.438Z,0.00
2022-08-25T03:45:15.421Z,0.00
2022-08-25T03:46:05.446Z,0.00
2022-08-25T03:46:55.413Z,0.00
2022-08-25T03:47:45.403Z,0.00
2022-08-25T03:48:35.380Z,0.00
2022-08-25T03:49:25.386Z,0.00
2022-08-25T03:50:15.361Z,0.00
2022-08-25T03:51:05.360Z,0.00
2022-08-25T03:51:55.362Z,0.00
2022-08-25T03:52:45.330Z,0.00
2022-08-25T03:53:35.331Z,0.00
2022-08-25T03:54:25.340Z,0.00
2022-08-25T03:55:15.322Z,0.00
2022-08-25T03:56:05.303Z,0.00
2022-08-25T03:56:55.288Z,0.00
2022-08-25T03:57:45.284Z,0.00
2022-08-25T03:58:35.272Z,0.00
2022-08-25T03:59:25.281Z,0.00
2022-08-25T04:00:15.281Z,0.00
2022-08-25T04:01:05.266Z,0.00
2022-08-25T04:01:55.690Z,0.00
2022-08-25T04:02:45.356Z,0.00
2022-08-25T04:03:35.210Z,0.00
2022-08-25T04:04:25.228Z,0.00
2022-08-25T04:05:15.848Z,0.00
2022-08-25T04:06:05.201Z,0.00
2022-08-25T04:06:55.170Z,4.00
2022-08-25T04:07:45.163Z,4.00
2022-08-25T04:08:35.164Z,4.00
2022-08-25T04:09:25.161Z,4.00
2022-08-25T04:10:15.155Z,4.00
2022-08-25T04:11:05.132Z,4.00
2022-08-25T04:11:55.137Z,4.00
2022-08-25T04:12:45.101Z,8.00
2022-08-25T04:13:35.111Z,8.00
2022-08-25T04:14:25.131Z,8.00
2022-08-25T04:15:15.092Z,8.00
2022-08-25T04:16:05.107Z,8.00
2022-08-25T04:16:55.157Z,16.00
2022-08-25T04:17:45.050Z,16.00
2022-08-25T04:18:35.047Z,16.00
2022-08-25T04:19:25.040Z,20.00
2022-08-25T04:20:15.052Z,24.00
2022-08-25T04:21:05.029Z,28.00
2022-08-25T04:21:56.706Z,32.00
2022-08-25T04:22:45.286Z,40.00
2022-08-25T04:23:34.989Z,44.00
2022-08-25T04:24:24.989Z,48.00
2022-08-25T04:25:14.987Z,52.00
2022-08-25T04:26:04.960Z,60.00
2022-08-25T04:26:54.949Z,64.00
2022-08-25T04:27:44.952Z,72.00
2022-08-25T04:28:34.957Z,80.00
2022-08-25T04:29:24.992Z,92.00
2022-08-25T04:30:14.909Z,100.00
2022-08-25T04:31:04.916Z,112.00
2022-08-25T04:31:54.989Z,124.00
2022-08-25T04:32:44.880Z,136.00
2022-08-25T04:33:34.890Z,148.00
2022-08-25T04:34:29.372Z,160.00
2022-08-25T04:35:15.869Z,176.00
2022-08-25T04:36:08.786Z,192.00
2022-08-25T04:36:55.849Z,208.00
2022-08-25T04:37:44.820Z,224.00
2022-08-25T04:38:34.828Z,244.00
2022-08-25T04:39:24.811Z,260.00
2022-08-25T04:40:14.858Z,276.00
2022-08-25T04:41:04.788Z,292.00
2022-08-25T04:41:54.789Z,312.00
2022-08-25T04:42:44.793Z,332.00
2022-08-25T04:43:34.760Z,348.00
2022-08-25T04:44:24.767Z,368.00
2022-08-25T04:45:14.759Z,392.00
2022-08-25T04:46:04.776Z,408.00
2022-08-25T04:46:54.726Z,432.00
2022-08-25T04:47:44.708Z,452.00
2022-08-25T04:48:34.721Z,476.00
2022-08-25T04:49:24.710Z,496.00
2022-08-25T04:50:14.707Z,516.00
2022-08-25T04:51:04.690Z,536.00
2022-08-25T04:51:54.688Z,556.00
2022-08-25T04:52:44.647Z,576.00
2022-08-25T04:53:34.677Z,596.00
2022-08-25T04:54:24.655Z,616.00
2022-08-25T04:55:14.628Z,636.00
2022-08-25T04:56:04.634Z,656.00
2022-08-25T04:56:58.297Z,672.00
2022-08-25T04:57:44.607Z,692.00
2022-08-25T04:58:34.620Z,712.00
2022-08-25T04:59:24.589Z,728.00
2022-08-25T05:00:15.607Z,748.00
2022-08-25T05:01:04.664Z,764.00
2022-08-25T05:01:54.591Z,784.00
2022-08-25T05:02:44.557Z,800.00
2022-08-25T05:03:34.537Z,820.00
2022-08-25T05:04:28.417Z,832.00
2022-08-25T05:05:14.519Z,852.00
2022-08-25T05:06:04.536Z,868.00
2022-08-25T05:06:54.516Z,880.00
2022-08-25T05:07:44.507Z,900.00
2022-08-25T05:08:34.477Z,916.00
2022-08-25T05:09:25.089Z,932.00
2022-08-25T05:10:14.466Z,948.00
2022-08-25T05:11:04.505Z,960.00
2022-08-25T05:11:54.457Z,976.00
2022-08-25T05:12:44.439Z,992.00
2022-08-25T05:13:34.459Z,1008.00
2022-08-25T05:14:26.393Z,1020.00
2022-08-25T05:15:14.415Z,1032.00
2022-08-25T05:16:04.453Z,1044.00
2022-08-25T05:16:55.449Z,1060.00
2022-08-25T05:17:44.374Z,1072.00
2022-08-25T05:18:34.366Z,1084.00
2022-08-25T05:19:24.593Z,1100.00
2022-08-25T05:20:14.345Z,1112.00
2022-08-25T05:21:04.334Z,1124.00
2022-08-25T05:21:54.327Z,1132.00
2022-08-25T05:22:44.316Z,1148.00
2022-08-25T05:23:34.337Z,1160.00
2022-08-25T05:24:24.446Z,1168.00
2022-08-25T05:25:14.296Z,1180.00
2022-08-25T05:26:04.274Z,1188.00
2022-08-25T05:26:54.285Z,1204.00
2022-08-25T05:27:44.286Z,1208.00
2022-08-25T05:28:34.276Z,1220.00
2022-08-25T05:29:24.245Z,1228.00
2022-08-25T05:30:14.253Z,1236.00
2022-08-25T05:31:04.249Z,1248.00
2022-08-25T05:31:54.332Z,1256.00
2022-08-25T05:32:44.217Z,1264.00
2022-08-25T05:33:34.243Z,1276.00
2022-08-25T05:34:24.204Z,1284.00
2022-08-25T05:35:14.203Z,1292.00
2022-08-25T05:36:04.189Z,1300.00
2022-08-25T05:36:54.175Z,1308.00
2022-08-25T05:37:44.166Z,1316.00
2022-08-25T05:38:34.161Z,1324.00
2022-08-25T05:39:24.698Z,1336.00
2022-08-25T05:40:14.185Z,1344.00
2022-08-25T05:41:04.105Z,1352.00
2022-08-25T05:41:54.135Z,1364.00
2022-08-25T05:42:44.094Z,1368.00
2022-08-25T05:43:34.106Z,1376.00
2022-08-25T05:44:24.096Z,1384.00
2022-08-25T05:45:15.825Z,1392.00
2022-08-25T05:46:05.165Z,1400.00
2022-08-25T05:46:54.086Z,1408.00
2022-08-25T05:47:44.034Z,1412.00
2022-08-25T05:48:34.033Z,1424.00
2022-08-25T05:49:24.014Z,1428.00
2022-08-25T05:50:14.036Z,1440.00
2022-08-25T05:51:04.003Z,1444.00
2022-08-25T05:51:54.055Z,1452.00
2022-08-25T05:52:43.982Z,1456.00
2022-08-25T05:53:34.180Z,1460.00
2022-08-25T05:54:23.972Z,1468.00
2022-08-25T05:55:13.960Z,1472.00
2022-08-25T05:56:03.971Z,1480.00
2022-08-25T05:56:53.946Z,1488.00
2022-08-25T05:57:43.926Z,1492.00
2022-08-25T05:58:33.964Z,1500.00
2022-08-25T05:59:23.913Z,1504.00
2022-08-25T06:00:13.901Z,1508.00
2022-08-25T06:01:03.955Z,1516.00
2022-08-25T06:01:53.883Z,1520.00
2022-08-25T06:02:43.872Z,1528.00
2022-08-25T06:03:33.928Z,1536.00
2022-08-25T06:04:23.874Z,1536.00
2022-08-25T06:05:13.867Z,1544.00
2022-08-25T06:06:03.833Z,1548.00
2022-08-25T06:06:53.823Z,1556.00
2022-08-25T06:07:43.825Z,1564.00
2022-08-25T06:08:33.812Z,1568.00
2022-08-25T06:09:23.815Z,1568.00
2022-08-25T06:10:13.823Z,1576.00
2022-08-25T06:11:03.796Z,1584.00
2022-08-25T06:11:55.251Z,1584.00
2022-08-25T06:12:43.752Z,1592.00
2022-08-25T06:13:33.772Z,1596.00
2022-08-25T06:14:23.753Z,1600.00
2022-08-25T06:15:13.774Z,1608.00
2022-08-25T06:16:03.752Z,1608.00
2022-08-25T06:16:53.725Z,1616.00
2022-08-25T06:17:43.712Z,1616.00
2022-08-25T06:18:33.695Z,1620.00
2022-08-25T06:19:23.864Z,1628.00
2022-08-25T06:20:13.700Z,1632.00
2022-08-25T06:21:03.675Z,1636.00
2022-08-25T06:21:53.672Z,1644.00
2022-08-25T06:22:43.651Z,1644.00
2022-08-25T06:23:33.642Z,1652.00
2022-08-25T06:24:23.622Z,1652.00
2022-08-25T06:25:13.624Z,1656.00
2022-08-25T06:26:03.644Z,1660.00
2022-08-25T06:26:53.601Z,1668.00
2022-08-25T06:27:43.583Z,1672.00
2022-08-25T06:28:33.592Z,1672.00
2022-08-25T06:29:23.591Z,1672.00
2022-08-25T06:30:13.559Z,1680.00
2022-08-25T06:31:03.585Z,1680.00
2022-08-25T06:31:53.656Z,1684.00
2022-08-25T06:32:43.542Z,1684.00
2022-08-25T06:33:33.521Z,1688.00
2022-08-25T06:34:23.902Z,1692.00
2022-08-25T06:35:13.511Z,1692.00
2022-08-25T06:36:03.515Z,1700.00
2022-08-25T06:36:53.508Z,1700.00
2022-08-25T06:37:43.843Z,1700.00
2022-08-25T06:38:33.500Z,1704.00
2022-08-25T06:39:23.550Z,1708.00
2022-08-25T06:40:13.566Z,1708.00
2022-08-25T06:41:03.451Z,1712.00
2022-08-25T06:41:53.432Z,1712.00
2022-08-25T06:42:43.449Z,1716.00
2022-08-25T06:43:33.431Z,1712.00
2022-08-25T06:44:23.402Z,1712.00
2022-08-25T06:45:13.389Z,1716.00
2022-08-25T06:46:03.381Z,1716.00
2022-08-25T06:46:53.423Z,1720.00
2022-08-25T06:47:43.370Z,1716.00
2022-08-25T06:48:33.361Z,1720.00
2022-08-25T06:49:23.351Z,1720.00
2022-08-25T06:50:13.341Z,1720.00
2022-08-25T06:51:03.327Z,1724.00
2022-08-25T06:51:53.340Z,1724.00
2022-08-25T06:52:43.332Z,1720.00
2022-08-25T06:53:33.317Z,1724.00
2022-08-25T06:54:23.302Z,1728.00
2022-08-25T06:55:13.280Z,1728.00
2022-08-25T06:56:06.479Z,1728.00
2022-08-25T06:56:53.434Z,1728.00
2022-08-25T06:57:43.249Z,1732.00
2022-08-25T06:58:33.252Z,1728.00
2022-08-25T06:59:23.251Z,1728.00
2022-08-25T07:00:13.230Z,1728.00
2022-08-25T07:01:03.262Z,1732.00
2022-08-25T07:01:53.315Z,1728.00
2022-08-25T07:02:43.262Z,1728.00
2022-08-25T07:03:33.190Z,1728.00
2022-08-25T07:04:23.190Z,1728.00
2022-08-25T07:05:16.969Z,1724.00
2022-08-25T07:06:04.170Z,1720.00
2022-08-25T07:06:53.150Z,1720.00
2022-08-25T07:07:44.292Z,1716.00
2022-08-25T07:08:33.143Z,1712.00
2022-08-25T07:09:23.119Z,1712.00
2022-08-25T07:10:13.117Z,1712.00
2022-08-25T07:11:03.110Z,1704.00
2022-08-25T07:11:53.119Z,1708.00
2022-08-25T07:12:43.087Z,1704.00
2022-08-25T07:13:33.078Z,1708.00
2022-08-25T07:14:23.081Z,1708.00
2022-08-25T07:15:20.986Z,1708.00
2022-08-25T07:16:04.137Z,1708.00
2022-08-25T07:16:53.029Z,1712.00
2022-08-25T07:17:43.049Z,1712.00
2022-08-25T07:18:33.031Z,1716.00
2022-08-25T07:19:23.032Z,1712.00
2022-08-25T07:20:13.632Z,1716.00
2022-08-25T07:21:03.004Z,1716.00
2022-08-25T07:21:53.005Z,1716.00
2022-08-25T07:22:42.992Z,1720.00
2022-08-25T07:23:32.977Z,1724.00
2022-08-25T07:24:22.949Z,1728.00
2022-08-25T07:25:12.953Z,1728.00
2022-08-25T07:26:11.531Z,1732.00
2022-08-25T07:26:54.088Z,1732.00
2022-08-25T07:27:42.917Z,1732.00
2022-08-25T07:28:32.922Z,1736.00
2022-08-25T07:30:13.899Z,1740.00
2022-08-25T07:31:02.931Z,1740.00
2022-08-25T07:31:52.950Z,1744.00
2022-08-25T07:32:43.121Z,1744.00
2022-08-25T07:33:32.858Z,1752.00
2022-08-25T07:34:22.889Z,1752.00
2022-08-25T07:35:12.827Z,1756.00
2022-08-25T07:36:02.828Z,1760.00
2022-08-25T07:36:52.820Z,1764.00
2022-08-25T07:37:49.148Z,1764.00
2022-08-25T07:38:33.800Z,1768.00
2022-08-25T07:39:22.790Z,1772.00
2022-08-25T07:40:12.876Z,1768.00
2022-08-25T07:41:02.769Z,1768.00
2022-08-25T07:41:52.807Z,1772.00
2022-08-25T07:42:42.748Z,1768.00
2022-08-25T07:43:32.748Z,1772.00
2022-08-25T07:44:22.739Z,1772.00
2022-08-25T07:45:12.729Z,1772.00
2022-08-25T07:46:02.720Z,1776.00
2022-08-25T07:46:53.657Z,1776.00
2022-08-25T07:47:42.689Z,1780.00
2022-08-25T07:48:32.685Z,1784.00
2022-08-25T07:49:23.107Z,1788.00
2022-08-25T07:50:12.672Z,1792.00
2022-08-25T07:51:05.546Z,1792.00
2022-08-25T07:52:05.525Z,1792.00
2022-08-25T07:52:43.630Z,1796.00
2022-08-25T07:53:32.630Z,1796.00
2022-08-25T07:54:22.610Z,1800.00
2022-08-25T07:55:13.625Z,1800.00
2022-08-25T07:56:52.597Z,1808.00
2022-08-25T07:57:42.598Z,1808.00
2022-08-25T07:58:32.565Z,1808.00
2022-08-25T07:59:22.582Z,1804.00
2022-08-25T08:00:12.579Z,1808.00
2022-08-25T08:01:02.537Z,1808.00
2022-08-25T08:01:52.605Z,1812.00
2022-08-25T08:02:42.579Z,1816.00
2022-08-25T08:03:45.148Z,1816.00
2022-08-25T08:04:23.508Z,1816.00
2022-08-25T08:05:12.489Z,1820.00
2022-08-25T08:06:02.531Z,1820.00
2022-08-25T08:06:52.478Z,1820.00
2022-08-25T08:07:43.820Z,1824.00
2022-08-25T08:08:32.637Z,1828.00
2022-08-25T08:09:22.445Z,1828.00
2022-08-25T08:10:42.465Z,1828.00
2022-08-25T08:11:04.660Z,1836.00
2022-08-25T08:11:54.389Z,1840.00
2022-08-25T08:12:42.417Z,1840.00
2022-08-25T08:13:32.405Z,1848.00
2022-08-25T08:14:22.395Z,1848.00
2022-08-25T08:15:12.388Z,1852.00
2022-08-25T08:16:02.434Z,1852.00
2022-08-25T08:16:52.375Z,1856.00
2022-08-25T08:17:42.348Z,1856.00
2022-08-25T08:18:32.337Z,1856.00
2022-08-25T08:19:23.161Z,1856.00
2022-08-25T08:20:12.318Z,1856.00
2022-08-25T08:21:02.328Z,1864.00
2022-08-25T08:21:52.319Z,1864.00
2022-08-25T08:22:42.310Z,1868.00
2022-08-25T08:23:32.298Z,1872.00
2022-08-25T08:24:40.805Z,1876.00
2022-08-25T08:25:18.696Z,1880.00
2022-08-25T08:26:03.278Z,1880.00
2022-08-25T08:26:58.643Z,1880.00
2022-08-25T08:27:43.239Z,1888.00
2022-08-25T08:28:32.249Z,1884.00
2022-08-25T08:29:22.321Z,1888.00
2022-08-25T08:30:12.247Z,1888.00
2022-08-25T08:31:02.228Z,1892.00
2022-08-25T08:31:52.243Z,1892.00
2022-08-25T08:33:08.076Z,1900.00
2022-08-25T08:33:33.168Z,1904.00
2022-08-25T08:34:25.050Z,1904.00
2022-08-25T08:35:12.176Z,1904.00
2022-08-25T08:36:05.139Z,1912.00
2022-08-25T08:36:52.151Z,1916.00
2022-08-25T08:37:42.167Z,1920.00
2022-08-25T08:38:32.117Z,1920.00
2022-08-25T08:39:22.108Z,1920.00
2022-08-25T08:40:12.167Z,1920.00
2022-08-25T08:41:02.161Z,1924.00
2022-08-25T08:42:10.810Z,1928.00
2022-08-25T08:42:43.077Z,1928.00
2022-08-25T08:43:33.457Z,1932.00
2022-08-25T08:44:22.068Z,1932.00
2022-08-25T08:45:12.038Z,1936.00
2022-08-25T08:46:02.126Z,1940.00
2022-08-25T08:46:52.071Z,1944.00
2022-08-25T08:47:42.040Z,1944.00
2022-08-25T08:48:32.008Z,1952.00
2022-08-25T08:49:22.010Z,1956.00
2022-08-25T08:50:11.987Z,1960.00
2022-08-25T08:51:02.027Z,1960.00
2022-08-25T08:51:51.988Z,1964.00
2022-08-25T08:52:41.978Z,1968.00
2022-08-25T08:53:34.263Z,1968.00
2022-08-25T08:54:23.136Z,1972.00
2022-08-25T08:55:11.960Z,1980.00
2022-08-25T08:56:01.938Z,1984.00
2022-08-25T08:56:51.916Z,1988.00
2022-08-25T08:57:41.940Z,1992.00
2022-08-25T08:58:31.908Z,1996.00
2022-08-25T08:59:21.889Z,2000.00
2022-08-25T09:00:11.889Z,2004.00
2022-08-25T09:01:01.899Z,2008.00
2022-08-25T09:01:53.216Z,2012.00
2022-08-25T09:02:51.498Z,2016.00
2022-08-25T09:03:32.928Z,2016.00
2022-08-25T09:04:21.849Z,2028.00
2022-08-25T09:05:11.829Z,2028.00
2022-08-25T09:06:01.841Z,2028.00
2022-08-25T09:06:51.810Z,2024.00
2022-08-25T09:07:42.255Z,2028.00
2022-08-25T09:08:31.779Z,2032.00
2022-08-25T09:09:21.831Z,2036.00
2022-08-25T09:10:11.779Z,2036.00
2022-08-25T09:11:01.769Z,2040.00
2022-08-25T09:11:51.752Z,2044.00
2022-08-25T09:12:45.494Z,2048.00
2022-08-25T09:13:32.752Z,2052.00
2022-08-25T09:14:21.758Z,2056.00
2022-08-25T09:15:13.527Z,2056.00
2022-08-25T09:16:01.758Z,2060.00
2022-08-25T09:16:51.700Z,2064.00
2022-08-25T09:17:41.809Z,2068.00
2022-08-25T09:18:31.679Z,2072.00
2022-08-25T09:19:23.465Z,2076.00
2022-08-25T09:20:18.671Z,2076.00
2022-08-25T09:21:02.699Z,2080.00
2022-08-25T09:21:51.651Z,2084.00
2022-08-25T09:22:41.664Z,2088.00
2022-08-25T09:23:31.611Z,2096.00
2022-08-25T09:24:21.609Z,2096.00
2022-08-25T09:25:11.811Z,2096.00
2022-08-25T09:26:01.604Z,2096.00
2022-08-25T09:26:51.583Z,2100.00
2022-08-25T09:27:41.589Z,2104.00
2022-08-25T09:28:31.569Z,2108.00
2022-08-25T09:29:21.570Z,2108.00
2022-08-25T09:30:11.553Z,2112.00
2022-08-25T09:31:01.783Z,2120.00
2022-08-25T09:31:51.565Z,2124.00
2022-08-25T09:32:41.522Z,2128.00
2022-08-25T09:33:34.215Z,2132.00
2022-08-25T09:34:21.510Z,2136.00
2022-08-25T09:35:11.518Z,2140.00
2022-08-25T09:36:01.527Z,2144.00
2022-08-25T09:36:51.471Z,2148.00
2022-08-25T09:37:41.482Z,2152.00
2022-08-25T09:38:31.471Z,2156.00
2022-08-25T09:39:21.441Z,2164.00
2022-08-25T09:40:11.527Z,2176.00
2022-08-25T09:41:01.440Z,2184.00
2022-08-25T09:41:51.675Z,2192.00
2022-08-25T09:42:41.421Z,2196.00
2022-08-25T09:43:31.390Z,2200.00
2022-08-25T09:44:21.451Z,2204.00
2022-08-25T09:45:11.381Z,2212.00
2022-08-25T09:46:01.480Z,2212.00
2022-08-25T09:46:51.372Z,2208.00
2022-08-25T09:47:41.370Z,2212.00
2022-08-25T09:48:31.340Z,2212.00
2022-08-25T09:49:21.331Z,2216.00
2022-08-25T09:50:11.343Z,2208.00
2022-08-25T09:51:02.311Z,2212.00
2022-08-25T09:51:52.693Z,2216.00
2022-08-25T09:52:41.833Z,2228.00
2022-08-25T09:53:33.730Z,2228.00
2022-08-25T09:54:21.284Z,2236.00
2022-08-25T09:55:13.165Z,2244.00
2022-08-25T09:56:01.258Z,2248.00
2022-08-25T09:56:51.243Z,2248.00
2022-08-25T09:57:41.252Z,2248.00
2022-08-25T09:58:31.224Z,2256.00
2022-08-25T09:59:21.253Z,2260.00
2022-08-25T10:00:12.221Z,2268.00
2022-08-25T10:01:01.213Z,2272.00
2022-08-25T10:01:51.241Z,2276.00
2022-08-25T10:02:41.208Z,2272.00
2022-08-25T10:03:31.192Z,2280.00
2022-08-25T10:04:22.159Z,2292.00
2022-08-25T10:05:11.226Z,2316.00
2022-08-25T10:06:01.153Z,2320.00
2022-08-25T10:06:51.132Z,2320.00
2022-08-25T10:07:41.122Z,2320.00
2022-08-25T10:08:31.270Z,2328.00
2022-08-25T10:09:21.101Z,2336.00
2022-08-25T10:10:11.111Z,2340.00
2022-08-25T10:11:01.113Z,2348.00
2022-08-25T10:11:51.084Z,2364.00
2022-08-25T10:12:42.747Z,2372.00
2022-08-25T10:13:31.063Z,2376.00
2022-08-25T10:14:21.081Z,2376.00
2022-08-25T10:15:11.041Z,2376.00
2022-08-25T10:16:01.040Z,2380.00
2022-08-25T10:16:51.122Z,2388.00
2022-08-25T10:17:41.022Z,2376.00
2022-08-25T10:18:31.008Z,2376.00
2022-08-25T10:19:20.991Z,2372.00
2022-08-25T10:20:11.011Z,2368.00
2022-08-25T10:21:00.980Z,2372.00
2022-08-25T10:21:50.972Z,2384.00
2022-08-25T10:22:40.976Z,2388.00
2022-08-25T10:23:30.962Z,2392.00
2022-08-25T10:24:20.951Z,2396.00
2022-08-25T10:25:10.939Z,2408.00
2022-08-25T10:26:03.629Z,2432.00
2022-08-25T10:26:50.912Z,2452.00
2022-08-25T10:27:40.904Z,2456.00
2022-08-25T10:28:30.926Z,2460.00
2022-08-25T10:29:20.872Z,2468.00
2022-08-25T10:30:10.913Z,2476.00
2022-08-25T10:31:00.910Z,2480.00
2022-08-25T10:31:50.863Z,2484.00